sensor_id;sensor_type;location;lat;lon;timestamp;temperature;humidity
2523;DHT22;1272;53.332;9.860;2023-02-18T00:02:08;6.20;99.90
2523;DHT22;1272;53.332;9.860;2023-02-18T00:04:34;6.30;99.90
2523;DHT22;1272;53.332;9.860;2023-02-18T00:07:01;6.20;99.90
2523;DHT22;1272;53.332;9.860;2023-02-18T00:09:27;6.20;99.90
2523;DHT22;1272;53.332;9.860;2023-02-18T00:11:53;6.30;99.90
2523;DHT22;1272;53.332;9.860;2023-02-18T00:14:18;6.20;99.90
2523;DHT22;1272;53.332;9.860;2023-02-18T00:16:45;6.10;99.90
2523;DHT22;1272;53.332;9.860;2023-02-18T00:19:13;6.10;99.90
2523;DHT22;1272;53.332;9.860;2023-02-18T00:21:41;6.10;99.90
2523;DHT22;1272;53.332;9.860;2023-02-18T00:24:08;6.00;99.90
2523;DHT22;1272;53.332;9.860;2023-02-18T00:26:34;6.10;99.90
2523;DHT22;1272;53.332;9.860;2023-02-18T00:29:00;6.10;99.90
2523;DHT22;1272;53.332;9.860;2023-02-18T00:31:32;6.10;99.90
2523;DHT22;1272;53.332;9.860;2023-02-18T00:33:59;6.10;99.90
2523;DHT22;1272;53.332;9.860;2023-02-18T00:36:25;6.10;99.90
2523;DHT22;1272;53.332;9.860;2023-02-18T00:38:57;6.10;99.90
2523;DHT22;1272;53.332;9.860;2023-02-18T00:41:24;6.10;99.90
2523;DHT22;1272;53.332;9.860;2023-02-18T00:43:51;6.00;99.90
2523;DHT22;1272;53.332;9.860;2023-02-18T00:46:17;6.00;99.90
2523;DHT22;1272;53.332;9.860;2023-02-18T00:48:43;5.90;99.90
2523;DHT22;1272;53.332;9.860;2023-02-18T00:51:09;5.90;99.90
2523;DHT22;1272;53.332;9.860;2023-02-18T00:53:36;5.90;99.90
2523;DHT22;1272;53.332;9.860;2023-02-18T00:56:02;5.90;99.90
2523;DHT22;1272;53.332;9.860;2023-02-18T00:58:28;5.90;99.90
2523;DHT22;1272;53.332;9.860;2023-02-18T01:00:54;5.90;99.90
2523;DHT22;1272;53.332;9.860;2023-02-18T01:03:20;5.80;99.90
2523;DHT22;1272;53.332;9.860;2023-02-18T01:05:48;5.80;99.90
2523;DHT22;1272;53.332;9.860;2023-02-18T01:08:16;5.80;99.90
2523;DHT22;1272;53.332;9.860;2023-02-18T01:10:43;5.70;99.90
2523;DHT22;1272;53.332;9.860;2023-02-18T01:13:10;5.70;99.90
2523;DHT22;1272;53.332;9.860;2023-02-18T01:15:38;5.70;99.90
2523;DHT22;1272;53.332;9.860;2023-02-18T01:18:03;5.70;99.90
2523;DHT22;1272;53.332;9.860;2023-02-18T01:20:30;5.70;99.90
2523;DHT22;1272;53.332;9.860;2023-02-18T01:22:55;5.70;99.90
2523;DHT22;1272;53.332;9.860;2023-02-18T01:25:21;5.60;99.90
2523;DHT22;1272;53.332;9.860;2023-02-18T01:27:47;5.60;99.90
2523;DHT22;1272;53.332;9.860;2023-02-18T01:30:15;5.60;99.90
2523;DHT22;1272;53.332;9.860;2023-02-18T01:32:42;5.60;99.90
2523;DHT22;1272;53.332;9.860;2023-02-18T01:35:11;5.60;99.90
2523;DHT22;1272;53.332;9.860;2023-02-18T01:37:37;5.60;99.90
2523;DHT22;1272;53.332;9.860;2023-02-18T01:40:04;5.50;99.90
2523;DHT22;1272;53.332;9.860;2023-02-18T01:42:30;5.50;99.90
2523;DHT22;1272;53.332;9.860;2023-02-18T01:56:24;5.60;99.90
2523;DHT22;1272;53.332;9.860;2023-02-18T01:58:53;5.60;99.90
2523;DHT22;1272;53.332;9.860;2023-02-18T02:01:20;5.60;99.90
2523;DHT22;1272;53.332;9.860;2023-02-18T02:03:46;5.60;99.90
2523;DHT22;1272;53.332;9.860;2023-02-18T02:06:18;5.60;99.90
2523;DHT22;1272;53.332;9.860;2023-02-18T02:08:46;5.60;99.90
2523;DHT22;1272;53.332;9.860;2023-02-18T02:11:20;5.60;99.90
2523;DHT22;1272;53.332;9.860;2023-02-18T02:13:54;5.60;99.90
2523;DHT22;1272;53.332;9.860;2023-02-18T02:16:33;5.50;99.90
2523;DHT22;1272;53.332;9.860;2023-02-18T02:38:39;5.80;99.90
2523;DHT22;1272;53.332;9.860;2023-02-18T02:46:52;5.90;99.90
2523;DHT22;1272;53.332;9.860;2023-02-18T02:49:46;5.90;99.90
2523;DHT22;1272;53.332;9.860;2023-02-18T02:52:32;5.90;99.90
2523;DHT22;1272;53.332;9.860;2023-02-18T02:54:59;5.90;99.90
2523;DHT22;1272;53.332;9.860;2023-02-18T02:59:56;6.00;99.90
2523;DHT22;1272;53.332;9.860;2023-02-18T03:05:38;6.00;99.90
2523;DHT22;1272;53.332;9.860;2023-02-18T03:10:47;6.00;99.90
2523;DHT22;1272;53.332;9.860;2023-02-18T03:16:25;6.00;99.90
2523;DHT22;1272;53.332;9.860;2023-02-18T03:21:44;6.20;99.90
2523;DHT22;1272;53.332;9.860;2023-02-18T03:24:16;6.10;99.90
2523;DHT22;1272;53.332;9.860;2023-02-18T03:26:47;6.10;99.90
2523;DHT22;1272;53.332;9.860;2023-02-18T03:29:17;6.10;99.90
2523;DHT22;1272;53.332;9.860;2023-02-18T03:31:46;6.20;99.90
2523;DHT22;1272;53.332;9.860;2023-02-18T03:34:16;6.20;99.90
2523;DHT22;1272;53.332;9.860;2023-02-18T03:36:43;6.20;99.90
2523;DHT22;1272;53.332;9.860;2023-02-18T03:39:18;6.20;99.90
2523;DHT22;1272;53.332;9.860;2023-02-18T03:41:44;6.20;99.90
2523;DHT22;1272;53.332;9.860;2023-02-18T03:44:11;6.20;99.90
2523;DHT22;1272;53.332;9.860;2023-02-18T03:46:39;6.20;99.90
2523;DHT22;1272;53.332;9.860;2023-02-18T03:49:05;6.10;99.90
2523;DHT22;1272;53.332;9.860;2023-02-18T03:51:31;6.20;99.90
2523;DHT22;1272;53.332;9.860;2023-02-18T03:53:57;6.30;99.90
2523;DHT22;1272;53.332;9.860;2023-02-18T03:56:23;6.40;99.90
2523;DHT22;1272;53.332;9.860;2023-02-18T03:58:49;6.40;99.90
2523;DHT22;1272;53.332;9.860;2023-02-18T04:01:15;6.40;99.90
2523;DHT22;1272;53.332;9.860;2023-02-18T04:03:41;6.40;99.90
2523;DHT22;1272;53.332;9.860;2023-02-18T04:06:07;6.30;99.90
2523;DHT22;1272;53.332;9.860;2023-02-18T04:08:33;6.30;99.90
2523;DHT22;1272;53.332;9.860;2023-02-18T04:10:59;6.30;99.90
2523;DHT22;1272;53.332;9.860;2023-02-18T04:13:26;6.30;99.90
2523;DHT22;1272;53.332;9.860;2023-02-18T04:15:51;6.30;99.90
2523;DHT22;1272;53.332;9.860;2023-02-18T04:18:18;6.30;99.90
2523;DHT22;1272;53.332;9.860;2023-02-18T04:20:44;6.30;99.90
2523;DHT22;1272;53.332;9.860;2023-02-18T04:23:11;6.40;99.90
2523;DHT22;1272;53.332;9.860;2023-02-18T04:25:36;6.40;99.90
2523;DHT22;1272;53.332;9.860;2023-02-18T04:28:02;6.30;99.90
2523;DHT22;1272;53.332;9.860;2023-02-18T04:30:28;6.30;99.90
2523;DHT22;1272;53.332;9.860;2023-02-18T04:32:54;6.30;99.90
2523;DHT22;1272;53.332;9.860;2023-02-18T04:35:20;6.30;99.90
2523;DHT22;1272;53.332;9.860;2023-02-18T04:37:45;6.30;99.90
2523;DHT22;1272;53.332;9.860;2023-02-18T04:40:11;6.30;99.90
2523;DHT22;1272;53.332;9.860;2023-02-18T04:42:37;6.20;99.90
2523;DHT22;1272;53.332;9.860;2023-02-18T04:45:03;6.20;99.90
2523;DHT22;1272;53.332;9.860;2023-02-18T04:47:29;6.30;99.90
2523;DHT22;1272;53.332;9.860;2023-02-18T04:49:54;6.30;99.90
2523;DHT22;1272;53.332;9.860;2023-02-18T04:52:20;6.30;99.90
2523;DHT22;1272;53.332;9.860;2023-02-18T04:54:46;6.30;99.90
2523;DHT22;1272;53.332;9.860;2023-02-18T04:57:12;6.30;99.90
2523;DHT22;1272;53.332;9.860;2023-02-18T04:59:37;6.30;99.90
2523;DHT22;1272;53.332;9.860;2023-02-18T05:02:03;6.30;99.90
2523;DHT22;1272;53.332;9.860;2023-02-18T05:04:32;6.30;99.90
2523;DHT22;1272;53.332;9.860;2023-02-18T05:06:58;6.30;99.90
2523;DHT22;1272;53.332;9.860;2023-02-18T05:09:24;6.30;99.90
2523;DHT22;1272;53.332;9.860;2023-02-18T05:11:49;6.20;99.90
2523;DHT22;1272;53.332;9.860;2023-02-18T05:14:16;6.20;99.90
2523;DHT22;1272;53.332;9.860;2023-02-18T05:16:41;6.20;99.90
2523;DHT22;1272;53.332;9.860;2023-02-18T05:19:07;6.20;99.90
2523;DHT22;1272;53.332;9.860;2023-02-18T05:21:33;6.20;99.90
2523;DHT22;1272;53.332;9.860;2023-02-18T05:23:59;6.20;99.90
2523;DHT22;1272;53.332;9.860;2023-02-18T05:26:24;6.20;99.90
2523;DHT22;1272;53.332;9.860;2023-02-18T05:28:50;6.20;99.90
2523;DHT22;1272;53.332;9.860;2023-02-18T05:31:16;6.30;99.90
2523;DHT22;1272;53.332;9.860;2023-02-18T05:33:41;6.30;99.90
2523;DHT22;1272;53.332;9.860;2023-02-18T05:36:07;6.30;99.90
2523;DHT22;1272;53.332;9.860;2023-02-18T05:38:33;6.30;99.90
2523;DHT22;1272;53.332;9.860;2023-02-18T05:41:01;6.20;99.90
2523;DHT22;1272;53.332;9.860;2023-02-18T05:43:27;6.20;99.90
2523;DHT22;1272;53.332;9.860;2023-02-18T05:45:53;6.20;99.90
2523;DHT22;1272;53.332;9.860;2023-02-18T05:48:18;6.20;99.90
2523;DHT22;1272;53.332;9.860;2023-02-18T05:50:44;6.20;99.90
2523;DHT22;1272;53.332;9.860;2023-02-18T05:53:10;6.20;99.90
2523;DHT22;1272;53.332;9.860;2023-02-18T05:55:35;6.20;99.90
2523;DHT22;1272;53.332;9.860;2023-02-18T05:58:03;6.20;99.90
2523;DHT22;1272;53.332;9.860;2023-02-18T06:00:29;6.20;99.90
2523;DHT22;1272;53.332;9.860;2023-02-18T06:02:57;6.20;99.90
2523;DHT22;1272;53.332;9.860;2023-02-18T06:05:23;6.20;99.90
2523;DHT22;1272;53.332;9.860;2023-02-18T06:07:48;6.20;99.90
2523;DHT22;1272;53.332;9.860;2023-02-18T06:10:14;6.20;99.90
2523;DHT22;1272;53.332;9.860;2023-02-18T06:12:40;6.20;99.90
2523;DHT22;1272;53.332;9.860;2023-02-18T06:15:06;6.10;99.90
2523;DHT22;1272;53.332;9.860;2023-02-18T06:17:32;6.10;99.90
2523;DHT22;1272;53.332;9.860;2023-02-18T06:19:57;6.20;99.90
2523;DHT22;1272;53.332;9.860;2023-02-18T06:22:23;6.10;99.90
2523;DHT22;1272;53.332;9.860;2023-02-18T06:24:52;6.10;99.90
2523;DHT22;1272;53.332;9.860;2023-02-18T06:27:17;6.10;99.90
2523;DHT22;1272;53.332;9.860;2023-02-18T06:29:43;6.10;99.90
2523;DHT22;1272;53.332;9.860;2023-02-18T06:32:09;6.00;99.90
2523;DHT22;1272;53.332;9.860;2023-02-18T06:34:34;6.00;99.90
2523;DHT22;1272;53.332;9.860;2023-02-18T06:37:00;6.00;99.90
2523;DHT22;1272;53.332;9.860;2023-02-18T06:39:26;6.00;99.90
2523;DHT22;1272;53.332;9.860;2023-02-18T06:41:52;6.00;99.90
2523;DHT22;1272;53.332;9.860;2023-02-18T06:44:17;6.10;99.90
2523;DHT22;1272;53.332;9.860;2023-02-18T06:46:44;6.00;99.90
2523;DHT22;1272;53.332;9.860;2023-02-18T06:49:11;6.10;99.90
2523;DHT22;1272;53.332;9.860;2023-02-18T06:51:36;6.00;99.90
2523;DHT22;1272;53.332;9.860;2023-02-18T06:54:02;6.10;99.90
2523;DHT22;1272;53.332;9.860;2023-02-18T06:56:30;6.10;99.90
2523;DHT22;1272;53.332;9.860;2023-02-18T06:58:55;6.00;99.90
2523;DHT22;1272;53.332;9.860;2023-02-18T07:01:21;6.10;99.90
2523;DHT22;1272;53.332;9.860;2023-02-18T07:03:47;6.10;99.90
2523;DHT22;1272;53.332;9.860;2023-02-18T07:06:12;6.10;99.90
2523;DHT22;1272;53.332;9.860;2023-02-18T07:08:38;6.10;99.90
2523;DHT22;1272;53.332;9.860;2023-02-18T07:11:04;6.10;99.90
2523;DHT22;1272;53.332;9.860;2023-02-18T07:13:29;6.10;99.90
2523;DHT22;1272;53.332;9.860;2023-02-18T07:15:55;6.10;99.90
2523;DHT22;1272;53.332;9.860;2023-02-18T07:18:21;6.10;99.90
2523;DHT22;1272;53.332;9.860;2023-02-18T07:20:46;6.20;99.90
2523;DHT22;1272;53.332;9.860;2023-02-18T07:23:12;6.20;99.90
2523;DHT22;1272;53.332;9.860;2023-02-18T07:25:38;6.20;99.90
2523;DHT22;1272;53.332;9.860;2023-02-18T07:28:04;6.20;99.90
2523;DHT22;1272;53.332;9.860;2023-02-18T07:30:29;6.20;99.90
2523;DHT22;1272;53.332;9.860;2023-02-18T07:32:55;6.20;99.90
2523;DHT22;1272;53.332;9.860;2023-02-18T07:35:21;6.20;99.90
2523;DHT22;1272;53.332;9.860;2023-02-18T07:37:47;6.20;99.90
2523;DHT22;1272;53.332;9.860;2023-02-18T07:40:17;6.20;99.90
2523;DHT22;1272;53.332;9.860;2023-02-18T07:42:43;6.20;99.90
2523;DHT22;1272;53.332;9.860;2023-02-18T07:45:14;6.20;99.90
2523;DHT22;1272;53.332;9.860;2023-02-18T07:47:40;6.30;99.90
2523;DHT22;1272;53.332;9.860;2023-02-18T07:50:08;6.30;99.90
2523;DHT22;1272;53.332;9.860;2023-02-18T07:52:34;6.40;99.90
2523;DHT22;1272;53.332;9.860;2023-02-18T07:55:00;6.50;99.90
2523;DHT22;1272;53.332;9.860;2023-02-18T07:57:25;6.50;99.90
2523;DHT22;1272;53.332;9.860;2023-02-18T07:59:51;6.50;99.90
2523;DHT22;1272;53.332;9.860;2023-02-18T08:02:20;6.50;99.90
2523;DHT22;1272;53.332;9.860;2023-02-18T08:04:46;6.50;99.90
2523;DHT22;1272;53.332;9.860;2023-02-18T08:07:13;6.40;99.90
2523;DHT22;1272;53.332;9.860;2023-02-18T08:13:21;6.40;99.90
2523;DHT22;1272;53.332;9.860;2023-02-18T08:16:14;6.40;99.90
2523;DHT22;1272;53.332;9.860;2023-02-18T08:18:40;6.40;99.90
2523;DHT22;1272;53.332;9.860;2023-02-18T08:21:08;6.50;99.90
2523;DHT22;1272;53.332;9.860;2023-02-18T08:23:34;6.60;99.90
2523;DHT22;1272;53.332;9.860;2023-02-18T08:26:00;6.60;99.90
2523;DHT22;1272;53.332;9.860;2023-02-18T08:28:25;6.60;99.90
2523;DHT22;1272;53.332;9.860;2023-02-18T08:30:53;6.70;99.90
2523;DHT22;1272;53.332;9.860;2023-02-18T08:33:20;6.70;99.90
2523;DHT22;1272;53.332;9.860;2023-02-18T08:35:48;6.70;99.90
2523;DHT22;1272;53.332;9.860;2023-02-18T08:38:14;6.70;99.90
2523;DHT22;1272;53.332;9.860;2023-02-18T08:40:40;6.70;99.90
2523;DHT22;1272;53.332;9.860;2023-02-18T08:43:07;6.60;99.90
2523;DHT22;1272;53.332;9.860;2023-02-18T08:45:32;6.60;99.90
2523;DHT22;1272;53.332;9.860;2023-02-18T08:47:58;6.60;99.90
2523;DHT22;1272;53.332;9.860;2023-02-18T08:50:24;6.70;99.90
2523;DHT22;1272;53.332;9.860;2023-02-18T08:52:55;6.60;99.90
2523;DHT22;1272;53.332;9.860;2023-02-18T08:55:21;6.70;99.90
2523;DHT22;1272;53.332;9.860;2023-02-18T08:57:48;6.70;99.90
2523;DHT22;1272;53.332;9.860;2023-02-18T09:00:15;6.70;99.90
2523;DHT22;1272;53.332;9.860;2023-02-18T09:02:41;6.70;99.90
2523;DHT22;1272;53.332;9.860;2023-02-18T09:05:07;6.70;99.90
2523;DHT22;1272;53.332;9.860;2023-02-18T09:07:35;6.80;99.90
2523;DHT22;1272;53.332;9.860;2023-02-18T09:10:00;6.80;99.90
2523;DHT22;1272;53.332;9.860;2023-02-18T09:12:27;6.80;99.90
2523;DHT22;1272;53.332;9.860;2023-02-18T09:14:53;6.80;99.90
2523;DHT22;1272;53.332;9.860;2023-02-18T09:17:19;6.80;99.90
2523;DHT22;1272;53.332;9.860;2023-02-18T09:19:45;6.90;99.90
2523;DHT22;1272;53.332;9.860;2023-02-18T09:22:10;6.80;99.90
2523;DHT22;1272;53.332;9.860;2023-02-18T09:24:40;6.80;99.90
2523;DHT22;1272;53.332;9.860;2023-02-18T09:27:07;6.90;99.90
2523;DHT22;1272;53.332;9.860;2023-02-18T09:29:37;6.90;99.90
2523;DHT22;1272;53.332;9.860;2023-02-18T09:32:05;6.90;99.90
2523;DHT22;1272;53.332;9.860;2023-02-18T09:34:31;6.90;99.90
2523;DHT22;1272;53.332;9.860;2023-02-18T09:36:57;6.90;99.90
2523;DHT22;1272;53.332;9.860;2023-02-18T09:39:23;7.00;99.90
2523;DHT22;1272;53.332;9.860;2023-02-18T09:41:54;7.10;99.90
2523;DHT22;1272;53.332;9.860;2023-02-18T09:44:41;7.10;99.90
2523;DHT22;1272;53.332;9.860;2023-02-18T09:47:29;7.10;99.90
2523;DHT22;1272;53.332;9.860;2023-02-18T09:52:42;7.40;99.90
2523;DHT22;1272;53.332;9.860;2023-02-18T09:55:30;7.50;99.90
2523;DHT22;1272;53.332;9.860;2023-02-18T09:58:25;7.50;99.90
2523;DHT22;1272;53.332;9.860;2023-02-18T10:01:12;7.50;99.90
2523;DHT22;1272;53.332;9.860;2023-02-18T10:03:40;7.60;99.90
2523;DHT22;1272;53.332;9.860;2023-02-18T10:06:29;7.60;99.90
2523;DHT22;1272;53.332;9.860;2023-02-18T10:08:57;7.70;99.90
2523;DHT22;1272;53.332;9.860;2023-02-18T10:11:36;7.80;99.90
2523;DHT22;1272;53.332;9.860;2023-02-18T10:14:10;7.90;99.90
2523;DHT22;1272;53.332;9.860;2023-02-18T10:16:35;7.90;99.90
2523;DHT22;1272;53.332;9.860;2023-02-18T10:19:21;8.10;99.90
2523;DHT22;1272;53.332;9.860;2023-02-18T10:21:48;8.20;99.90
2523;DHT22;1272;53.332;9.860;2023-02-18T10:24:24;8.30;99.90
2523;DHT22;1272;53.332;9.860;2023-02-18T10:26:51;8.30;99.90
2523;DHT22;1272;53.332;9.860;2023-02-18T10:29:19;8.50;99.90
2523;DHT22;1272;53.332;9.860;2023-02-18T10:31:58;8.50;99.90
2523;DHT22;1272;53.332;9.860;2023-02-18T10:34:45;8.70;99.90
2523;DHT22;1272;53.332;9.860;2023-02-18T10:39:56;8.80;99.90
2523;DHT22;1272;53.332;9.860;2023-02-18T10:45:43;9.00;99.90
2523;DHT22;1272;53.332;9.860;2023-02-18T10:51:24;9.10;99.90
2523;DHT22;1272;53.332;9.860;2023-02-18T10:53:52;9.20;99.90
2523;DHT22;1272;53.332;9.860;2023-02-18T10:56:48;9.20;99.90
2523;DHT22;1272;53.332;9.860;2023-02-18T10:59:23;9.30;99.90
2523;DHT22;1272;53.332;9.860;2023-02-18T11:01:59;9.40;99.90
2523;DHT22;1272;53.332;9.860;2023-02-18T11:04:40;9.40;99.90
2523;DHT22;1272;53.332;9.860;2023-02-18T11:07:21;9.50;99.90
2523;DHT22;1272;53.332;9.860;2023-02-18T11:10:00;9.60;99.90
2523;DHT22;1272;53.332;9.860;2023-02-18T11:12:29;9.60;99.90
2523;DHT22;1272;53.332;9.860;2023-02-18T11:15:17;9.60;99.90
2523;DHT22;1272;53.332;9.860;2023-02-18T11:17:46;9.60;99.90
2523;DHT22;1272;53.332;9.860;2023-02-18T11:20:28;9.60;99.90
2523;DHT22;1272;53.332;9.860;2023-02-18T11:23:17;9.70;99.90
2523;DHT22;1272;53.332;9.860;2023-02-18T11:26:03;9.70;99.90
2523;DHT22;1272;53.332;9.860;2023-02-18T11:29:05;9.70;99.90
2523;DHT22;1272;53.332;9.860;2023-02-18T11:31:45;9.70;99.90
2523;DHT22;1272;53.332;9.860;2023-02-18T11:34:21;9.60;99.90
2523;DHT22;1272;53.332;9.860;2023-02-18T11:36:48;9.70;99.90
2523;DHT22;1272;53.332;9.860;2023-02-18T11:39:27;9.70;99.90
2523;DHT22;1272;53.332;9.860;2023-02-18T11:42:04;9.70;99.90
2523;DHT22;1272;53.332;9.860;2023-02-18T11:47:05;9.70;99.90
2523;DHT22;1272;53.332;9.860;2023-02-18T11:49:33;9.70;99.90
2523;DHT22;1272;53.332;9.860;2023-02-18T11:52:17;9.80;99.90
2523;DHT22;1272;53.332;9.860;2023-02-18T11:54:59;9.70;99.90
2523;DHT22;1272;53.332;9.860;2023-02-18T11:57:26;9.70;99.90
2523;DHT22;1272;53.332;9.860;2023-02-18T11:59:52;9.70;99.90
2523;DHT22;1272;53.332;9.860;2023-02-18T12:10:39;9.70;99.90
2523;DHT22;1272;53.332;9.860;2023-02-18T12:16:10;9.70;99.90
2523;DHT22;1272;53.332;9.860;2023-02-18T12:18:54;9.70;99.90
2523;DHT22;1272;53.332;9.860;2023-02-18T12:21:32;9.80;99.90
2523;DHT22;1272;53.332;9.860;2023-02-18T12:24:15;9.70;99.90
2523;DHT22;1272;53.332;9.860;2023-02-18T12:29:37;9.70;99.90
2523;DHT22;1272;53.332;9.860;2023-02-18T12:32:45;9.80;99.90
2523;DHT22;1272;53.332;9.860;2023-02-18T12:35:54;9.80;99.90
2523;DHT22;1272;53.332;9.860;2023-02-18T12:41:11;9.80;99.90
2523;DHT22;1272;53.332;9.860;2023-02-18T12:46:26;9.80;99.90
2523;DHT22;1272;53.332;9.860;2023-02-18T12:49:23;9.80;99.90
2523;DHT22;1272;53.332;9.860;2023-02-18T12:54:56;9.70;99.90
2523;DHT22;1272;53.332;9.860;2023-02-18T12:57:58;9.80;99.90
2523;DHT22;1272;53.332;9.860;2023-02-18T13:03:48;9.80;99.90
2523;DHT22;1272;53.332;9.860;2023-02-18T13:06:37;9.70;99.90
2523;DHT22;1272;53.332;9.860;2023-02-18T13:14:23;9.70;99.90
2523;DHT22;1272;53.332;9.860;2023-02-18T13:16:54;9.70;99.90
2523;DHT22;1272;53.332;9.860;2023-02-18T13:19:33;9.70;99.90
2523;DHT22;1272;53.332;9.860;2023-02-18T13:22:05;9.70;99.90
2523;DHT22;1272;53.332;9.860;2023-02-18T13:24:39;9.70;99.90
2523;DHT22;1272;53.332;9.860;2023-02-18T13:35:39;9.70;99.90
2523;DHT22;1272;53.332;9.860;2023-02-18T13:39:09;9.70;99.90
2523;DHT22;1272;53.332;9.860;2023-02-18T13:41:04;9.70;99.90
2523;DHT22;1272;53.332;9.860;2023-02-18T13:43:32;9.70;99.90
2523;DHT22;1272;53.332;9.860;2023-02-18T13:46:18;9.60;99.90
2523;DHT22;1272;53.332;9.860;2023-02-18T13:51:30;9.60;99.90
2523;DHT22;1272;53.332;9.860;2023-02-18T13:56:49;9.60;99.90
2523;DHT22;1272;53.332;9.860;2023-02-18T13:59:21;9.60;99.90
2523;DHT22;1272;53.332;9.860;2023-02-18T14:01:51;9.60;99.90
2523;DHT22;1272;53.332;9.860;2023-02-18T14:07:49;9.50;99.90
2523;DHT22;1272;53.332;9.860;2023-02-18T14:10:34;9.50;99.90
2523;DHT22;1272;53.332;9.860;2023-02-18T14:13:16;9.50;99.90
2523;DHT22;1272;53.332;9.860;2023-02-18T14:15:49;9.60;99.90
2523;DHT22;1272;53.332;9.860;2023-02-18T14:21:18;9.40;99.90
2523;DHT22;1272;53.332;9.860;2023-02-18T14:23:56;9.40;99.90
2523;DHT22;1272;53.332;9.860;2023-02-18T14:26:38;9.40;99.90
2523;DHT22;1272;53.332;9.860;2023-02-18T14:29:29;9.40;99.90
2523;DHT22;1272;53.332;9.860;2023-02-18T14:32:09;9.40;99.90
2523;DHT22;1272;53.332;9.860;2023-02-18T14:34:57;9.30;99.90
2523;DHT22;1272;53.332;9.860;2023-02-18T14:37:43;9.40;99.90
2523;DHT22;1272;53.332;9.860;2023-02-18T14:51:25;9.30;99.90
2523;DHT22;1272;53.332;9.860;2023-02-18T14:53:51;9.30;99.90
2523;DHT22;1272;53.332;9.860;2023-02-18T14:56:19;9.30;99.90
2523;DHT22;1272;53.332;9.860;2023-02-18T14:58:48;9.30;99.90
2523;DHT22;1272;53.332;9.860;2023-02-18T15:01:33;9.30;99.90
2523;DHT22;1272;53.332;9.860;2023-02-18T15:04:00;9.40;99.90
2523;DHT22;1272;53.332;9.860;2023-02-18T15:06:32;9.30;99.90
2523;DHT22;1272;53.332;9.860;2023-02-18T15:09:00;9.30;99.90
2523;DHT22;1272;53.332;9.860;2023-02-18T15:11:38;9.30;99.90
2523;DHT22;1272;53.332;9.860;2023-02-18T15:14:13;9.30;99.90
2523;DHT22;1272;53.332;9.860;2023-02-18T15:16:44;9.30;99.90
2523;DHT22;1272;53.332;9.860;2023-02-18T15:19:24;9.30;99.90
2523;DHT22;1272;53.332;9.860;2023-02-18T15:21:55;9.20;99.90
2523;DHT22;1272;53.332;9.860;2023-02-18T15:26:59;9.20;99.90
2523;DHT22;1272;53.332;9.860;2023-02-18T15:29:28;9.10;99.90
2523;DHT22;1272;53.332;9.860;2023-02-18T15:31:56;9.10;99.90
2523;DHT22;1272;53.332;9.860;2023-02-18T15:36:55;9.00;99.90
2523;DHT22;1272;53.332;9.860;2023-02-18T15:39:22;9.00;99.90
2523;DHT22;1272;53.332;9.860;2023-02-18T15:41:56;8.90;99.90
2523;DHT22;1272;53.332;9.860;2023-02-18T15:44:24;8.80;99.90
2523;DHT22;1272;53.332;9.860;2023-02-18T15:46:51;8.80;99.90
2523;DHT22;1272;53.332;9.860;2023-02-18T15:49:20;8.80;99.90
2523;DHT22;1272;53.332;9.860;2023-02-18T15:51:48;8.80;99.90
2523;DHT22;1272;53.332;9.860;2023-02-18T15:54:22;8.70;99.90
2523;DHT22;1272;53.332;9.860;2023-02-18T15:56:55;8.70;99.90
2523;DHT22;1272;53.332;9.860;2023-02-18T15:59:27;8.70;99.90
2523;DHT22;1272;53.332;9.860;2023-02-18T16:02:19;8.70;99.90
2523;DHT22;1272;53.332;9.860;2023-02-18T16:04:58;8.70;99.90
2523;DHT22;1272;53.332;9.860;2023-02-18T16:07:28;8.80;99.90
2523;DHT22;1272;53.332;9.860;2023-02-18T16:10:22;8.80;99.90
2523;DHT22;1272;53.332;9.860;2023-02-18T16:12:51;8.70;99.90
2523;DHT22;1272;53.332;9.860;2023-02-18T16:15:30;8.60;99.90
2523;DHT22;1272;53.332;9.860;2023-02-18T16:17:56;8.60;99.90
2523;DHT22;1272;53.332;9.860;2023-02-18T16:20:35;8.60;99.90
2523;DHT22;1272;53.332;9.860;2023-02-18T16:23:13;8.70;99.90
2523;DHT22;1272;53.332;9.860;2023-02-18T16:25:47;8.70;99.90
2523;DHT22;1272;53.332;9.860;2023-02-18T16:28:23;8.70;99.90
2523;DHT22;1272;53.332;9.860;2023-02-18T16:30:49;8.60;99.90
2523;DHT22;1272;53.332;9.860;2023-02-18T16:33:14;8.60;99.90
2523;DHT22;1272;53.332;9.860;2023-02-18T16:35:41;8.50;99.90
2523;DHT22;1272;53.332;9.860;2023-02-18T16:38:17;8.50;99.90
2523;DHT22;1272;53.332;9.860;2023-02-18T16:40:43;8.50;99.90
2523;DHT22;1272;53.332;9.860;2023-02-18T16:43:17;8.50;99.90
2523;DHT22;1272;53.332;9.860;2023-02-18T16:45:49;8.40;99.90
2523;DHT22;1272;53.332;9.860;2023-02-18T16:48:31;8.50;99.90
2523;DHT22;1272;53.332;9.860;2023-02-18T16:51:32;8.50;99.90
2523;DHT22;1272;53.332;9.860;2023-02-18T16:53:58;8.50;99.90
2523;DHT22;1272;53.332;9.860;2023-02-18T16:56:26;8.40;99.90
2523;DHT22;1272;53.332;9.860;2023-02-18T16:58:55;8.40;99.90
2523;DHT22;1272;53.332;9.860;2023-02-18T17:03:49;8.30;99.90
2523;DHT22;1272;53.332;9.860;2023-02-18T17:06:16;8.30;99.90
2523;DHT22;1272;53.332;9.860;2023-02-18T17:08:42;8.30;99.90
2523;DHT22;1272;53.332;9.860;2023-02-18T17:11:15;8.20;99.90
2523;DHT22;1272;53.332;9.860;2023-02-18T17:13:42;8.10;99.90
2523;DHT22;1272;53.332;9.860;2023-02-18T17:16:09;8.00;99.90
2523;DHT22;1272;53.332;9.860;2023-02-18T17:18:35;8.00;99.90
2523;DHT22;1272;53.332;9.860;2023-02-18T17:21:01;8.00;99.90
2523;DHT22;1272;53.332;9.860;2023-02-18T17:23:28;7.90;99.90
2523;DHT22;1272;53.332;9.860;2023-02-18T17:25:54;7.90;99.90
2523;DHT22;1272;53.332;9.860;2023-02-18T17:28:19;7.90;99.90
2523;DHT22;1272;53.332;9.860;2023-02-18T17:30:49;7.90;99.90
2523;DHT22;1272;53.332;9.860;2023-02-18T17:33:17;7.90;99.90
2523;DHT22;1272;53.332;9.860;2023-02-18T17:35:44;7.80;99.90
2523;DHT22;1272;53.332;9.860;2023-02-18T17:38:11;7.80;99.90
2523;DHT22;1272;53.332;9.860;2023-02-18T17:40:37;7.70;99.90
2523;DHT22;1272;53.332;9.860;2023-02-18T17:43:03;7.70;99.90
2523;DHT22;1272;53.332;9.860;2023-02-18T17:45:38;7.70;99.90
2523;DHT22;1272;53.332;9.860;2023-02-18T17:48:04;7.60;99.90
2523;DHT22;1272;53.332;9.860;2023-02-18T17:50:31;7.60;99.90
2523;DHT22;1272;53.332;9.860;2023-02-18T17:52:57;7.60;99.90
2523;DHT22;1272;53.332;9.860;2023-02-18T17:55:26;7.60;99.90
2523;DHT22;1272;53.332;9.860;2023-02-18T17:57:52;7.50;99.90
2523;DHT22;1272;53.332;9.860;2023-02-18T18:00:25;7.50;99.90
2523;DHT22;1272;53.332;9.860;2023-02-18T18:02:52;7.40;99.90
2523;DHT22;1272;53.332;9.860;2023-02-18T18:05:29;7.40;99.90
2523;DHT22;1272;53.332;9.860;2023-02-18T18:07:56;7.50;99.90
2523;DHT22;1272;53.332;9.860;2023-02-18T18:10:23;7.50;99.90
2523;DHT22;1272;53.332;9.860;2023-02-18T18:13:01;7.40;99.90
2523;DHT22;1272;53.332;9.860;2023-02-18T18:15:37;7.40;99.90
2523;DHT22;1272;53.332;9.860;2023-02-18T18:18:04;7.40;99.90
2523;DHT22;1272;53.332;9.860;2023-02-18T18:20:31;7.40;99.90
2523;DHT22;1272;53.332;9.860;2023-02-18T18:22:59;7.40;99.90
2523;DHT22;1272;53.332;9.860;2023-02-18T18:25:28;7.40;99.90
2523;DHT22;1272;53.332;9.860;2023-02-18T18:27:54;7.40;99.90
2523;DHT22;1272;53.332;9.860;2023-02-18T18:30:22;7.40;99.90
2523;DHT22;1272;53.332;9.860;2023-02-18T18:32:48;7.40;99.90
2523;DHT22;1272;53.332;9.860;2023-02-18T18:35:27;7.50;99.90
2523;DHT22;1272;53.332;9.860;2023-02-18T18:37:53;7.40;99.90
2523;DHT22;1272;53.332;9.860;2023-02-18T18:40:20;7.40;99.90
2523;DHT22;1272;53.332;9.860;2023-02-18T18:42:46;7.30;99.90
2523;DHT22;1272;53.332;9.860;2023-02-18T18:45:23;7.30;99.90
2523;DHT22;1272;53.332;9.860;2023-02-18T18:47:49;7.30;99.90
2523;DHT22;1272;53.332;9.860;2023-02-18T18:50:16;7.20;99.90
2523;DHT22;1272;53.332;9.860;2023-02-18T18:52:42;7.10;99.90
2523;DHT22;1272;53.332;9.860;2023-02-18T18:55:32;7.10;99.90
2523;DHT22;1272;53.332;9.860;2023-02-18T18:57:59;7.00;99.90